Terminal Aerodrome Forecast
Issued by NWS

Home | Current Version | Previous Version | Text Only | Print | Product List | Glossary On
Versions: 1 2 3 4 5 6 7 8 9 10 11 12 13 14 15
236
FTUS44 KCRP 200529
TAFALI
TAF
KALI 200529Z 2006/2106 15008KT P6SM SKC
     FM200800 VRB03KT P6SM SCT018
      TEMPO 2009/2013 00000KT 5SM BR BKN018
     FM201400 17008KT P6SM SCT025
     FM201900 13013G19KT P6SM FEW050
     FM210100 13010KT P6SM SKC=

USA.gov is the U.S. government's official web portal to all federal, state and local government web resources and services.